Time;durP1;ratioP1;P1;durP2;ratioP2;P2;SDS_P1;SDS_P2;PMS_P1;PMS_P2;Temp;Humidity;BMP_temperature;BMP_pressure;BME280_temperature;BME280_humidity;BME280_pressure;Samples;Min_cycle;Max_cycle;Signal;HPM_P1;HPM_P2
2022/08/21 00:03:26;;;;;;;8.82;5.43;;;14.60;99.90;;;;;;7317544;32;20157;-63
2022/08/21 00:07:28;;;;;;;9.88;5.90;;;14.60;99.90;;;;;;7317004;32;20191;-63
2022/08/21 00:11:30;;;;;;;9.50;5.70;;;14.70;99.90;;;;;;7319946;32;20125;-63
2022/08/21 00:15:34;;;;;;;7.95;5.43;;;14.70;99.90;;;;;;7317355;32;20287;-63
2022/08/21 00:19:36;;;;;;;8.90;5.68;;;14.80;99.90;;;;;;7316404;32;20148;-63
2022/08/21 00:23:38;;;;;;;7.90;6.07;;;14.80;99.90;;;;;;7319093;32;20203;-63
2022/08/21 00:27:42;;;;;;;9.32;6.87;;;14.80;99.90;;;;;;7316065;32;20210;-61
2022/08/21 00:31:44;;;;;;;9.43;6.15;;;14.70;99.90;;;;;;7321502;32;20226;-63
2022/08/21 00:35:46;;;;;;;14.38;5.90;;;14.70;99.90;;;;;;7310786;32;20492;-63
2022/08/21 00:39:48;;;;;;;10.05;5.97;;;14.60;99.90;;;;;;7315469;32;20332;-62
2022/08/21 00:43:51;;;;;;;10.35;5.93;;;14.60;99.90;;;;;;7318437;32;20103;-63
2022/08/21 00:47:54;;;;;;;11.18;6.12;;;14.50;99.90;;;;;;7319517;32;20135;-62
2022/08/21 00:52:00;;;;;;;11.75;6.10;;;14.40;99.90;;;;;;7316099;32;20571;-63
2022/08/21 00:56:04;;;;;;;10.38;6.32;;;14.30;99.90;;;;;;7317862;32;20127;-63
2022/08/21 01:00:10;;;;;;;10.30;6.25;;;14.20;99.90;;;;;;7320849;32;20099;-63
2022/08/21 01:04:13;;;;;;;9.90;6.32;;;14.20;99.90;;;;;;7317986;32;20188;-63
2022/08/21 01:08:17;;;;;;;10.55;6.07;;;14.20;99.90;;;;;;7315543;32;20174;-61
2022/08/21 01:12:19;;;;;;;12.27;5.68;;;14.00;99.90;;;;;;7297368;32;20145;-63
2022/08/21 01:16:22;;;;;;;10.35;6.20;;;14.00;99.90;;;;;;7315424;32;20122;-63
2022/08/21 01:20:24;;;;;;;9.27;6.25;;;13.90;99.90;;;;;;7310259;32;20484;-62
2022/08/21 01:24:33;;;;;;;11.32;6.22;;;13.90;99.90;;;;;;7317273;32;20838;-62
2022/08/21 01:28:40;;;;;;;10.15;5.93;;;13.90;99.90;;;;;;7314198;32;20175;-61
2022/08/21 01:32:42;;;;;;;8.90;5.93;;;13.90;99.90;;;;;;7314249;32;20104;-61
2022/08/21 01:36:46;;;;;;;11.73;6.30;;;13.80;99.90;;;;;;7311001;32;20192;-62
2022/08/21 01:40:48;;;;;;;12.35;6.30;;;13.70;99.90;;;;;;7309781;32;20206;-62
2022/08/21 01:44:50;;;;;;;11.48;6.70;;;13.70;99.90;;;;;;7317871;32;20104;-61
2022/08/21 01:48:57;;;;;;;13.23;6.23;;;13.60;99.90;;;;;;7320180;32;20135;-60
2022/08/21 01:52:58;;;;;;;14.48;6.62;;;13.60;99.90;;;;;;7325649;32;20256;-62
2022/08/21 01:57:00;;;;;;;13.90;7.18;;;13.50;99.90;;;;;;7323044;32;20134;-62
2022/08/21 02:01:03;;;;;;;9.85;6.60;;;13.40;99.90;;;;;;7321788;32;20288;-61
2022/08/21 02:05:06;;;;;;;13.93;7.57;;;13.30;99.90;;;;;;7319909;32;20130;-61
2022/08/21 02:09:10;;;;;;;10.07;6.80;;;13.20;99.90;;;;;;7317646;32;20215;-62
2022/08/21 02:13:12;;;;;;;11.10;6.78;;;13.20;99.90;;;;;;7315811;32;20107;-61
2022/08/21 02:17:14;;;;;;;9.13;7.12;;;13.20;99.90;;;;;;7319078;32;20490;-62
2022/08/21 02:21:16;;;;;;;7.78;6.97;;;13.10;99.90;;;;;;7317864;32;20710;-63
2022/08/21 02:25:20;;;;;;;9.32;6.45;;;13.10;99.90;;;;;;7316517;32;20200;-60
2022/08/21 02:29:21;;;;;;;9.68;6.93;;;13.00;99.90;;;;;;7316457;32;20175;-63
2022/08/21 02:33:24;;;;;;;12.25;6.95;;;13.00;99.90;;;;;;7317853;32;20119;-63
2022/08/21 02:37:27;;;;;;;10.35;6.78;;;13.00;99.90;;;;;;7317004;32;20260;-62
2022/08/21 02:41:28;;;;;;;10.38;7.10;;;12.90;99.90;;;;;;7318610;32;20922;-61
2022/08/21 02:45:31;;;;;;;10.43;6.45;;;12.90;99.90;;;;;;7314282;32;20256;-62
2022/08/21 02:49:32;;;;;;;15.30;7.20;;;12.80;99.90;;;;;;7312232;32;20191;-62
2022/08/21 02:53:35;;;;;;;11.43;7.57;;;12.80;99.90;;;;;;7315862;32;20162;-63
2022/08/21 02:57:37;;;;;;;9.85;7.10;;;12.70;99.90;;;;;;7320428;32;20107;-61
2022/08/21 03:01:38;;;;;;;11.63;6.90;;;12.80;99.90;;;;;;7321060;32;20206;-62
2022/08/21 03:05:41;;;;;;;8.32;7.22;;;12.70;99.90;;;;;;7298766;32;20582;-62
2022/08/21 03:09:43;;;;;;;12.07;7.15;;;12.60;99.90;;;;;;7320420;32;20119;-61
2022/08/21 03:13:56;;;;;;;12.57;7.43;;;12.60;99.90;;;;;;7320052;32;20116;-61
2022/08/21 03:17:58;;;;;;;13.18;6.87;;;12.60;99.90;;;;;;7316873;32;20815;-61
2022/08/21 03:22:00;;;;;;;11.20;7.12;;;12.60;99.90;;;;;;7315998;32;20326;-60
2022/08/21 03:26:02;;;;;;;9.82;7.62;;;12.50;99.90;;;;;;7308553;32;20843;-61
2022/08/21 03:30:06;;;;;;;8.30;6.62;;;12.50;99.90;;;;;;7316921;32;20095;-59
2022/08/21 03:34:08;;;;;;;13.90;7.37;;;12.50;99.90;;;;;;7304282;32;20815;-60
2022/08/21 03:38:11;;;;;;;13.07;7.35;;;12.40;99.90;;;;;;7318733;32;20182;-61
2022/08/21 03:42:13;;;;;;;14.38;8.10;;;12.40;99.90;;;;;;7320171;32;20115;-60
2022/08/21 03:46:15;;;;;;;10.32;7.00;;;12.50;99.90;;;;;;7314490;32;20112;-60
2022/08/21 03:50:17;;;;;;;11.25;7.65;;;12.40;99.90;;;;;;7316262;32;20131;-60
2022/08/21 03:54:19;;;;;;;9.38;7.80;;;12.30;99.90;;;;;;7314420;32;20404;-61
2022/08/21 03:58:24;;;;;;;11.57;7.53;;;12.30;99.90;;;;;;7317607;32;20164;-59
2022/08/21 04:02:25;;;;;;;8.73;6.78;;;12.20;99.90;;;;;;7312890;32;20103;-61
2022/08/21 04:06:27;;;;;;;11.18;7.65;;;12.20;99.90;;;;;;7314875;32;20164;-60
2022/08/21 04:10:32;;;;;;;9.40;7.30;;;12.20;99.90;;;;;;7310860;32;20764;-61
2022/08/21 04:14:34;;;;;;;11.05;7.07;;;12.10;99.90;;;;;;7299625;32;20270;-60
2022/08/21 04:18:35;;;;;;;11.90;6.97;;;12.20;99.90;;;;;;7315948;32;20135;-61
2022/08/21 04:22:37;;;;;;;10.10;7.82;;;12.20;99.90;;;;;;7310598;32;20465;-60
2022/08/21 04:26:39;;;;;;;9.70;7.35;;;12.10;99.90;;;;;;7313831;32;20123;-60
2022/08/21 04:30:41;;;;;;;12.45;7.70;;;12.10;99.90;;;;;;7313408;32;20183;-60
2022/08/21 04:34:43;;;;;;;12.63;8.07;;;12.10;99.90;;;;;;7312591;32;20239;-60
2022/08/21 04:38:45;;;;;;;9.77;7.70;;;12.20;99.90;;;;;;7316423;32;20104;-62
2022/08/21 04:42:49;;;;;;;12.90;8.40;;;12.20;99.90;;;;;;7311755;32;20114;-60
2022/08/21 04:46:51;;;;;;;11.12;8.65;;;12.30;99.90;;;;;;7310912;32;20179;-61
2022/08/21 04:50:58;;;;;;;13.88;8.55;;;12.20;99.90;;;;;;7315894;32;20285;-61
2022/08/21 04:55:00;;;;;;;9.07;8.13;;;12.30;99.90;;;;;;7315856;32;20322;-60
2022/08/21 04:59:06;;;;;;;16.20;8.55;;;12.30;99.90;;;;;;7299764;32;20601;-62
2022/08/21 05:03:11;;;;;;;10.85;8.18;;;12.30;99.90;;;;;;7313956;32;20529;-63
2022/08/21 05:07:18;;;;;;;11.82;8.63;;;12.40;99.90;;;;;;7314604;32;20169;-60
2022/08/21 05:11:40;;;;;;;11.83;8.67;;;12.40;99.90;;;;;;7304372;32;20182;-61
2022/08/21 05:15:42;;;;;;;14.18;9.55;;;12.50;99.90;;;;;;7310762;32;20143;-60
2022/08/21 05:19:44;;;;;;;10.77;8.90;;;12.60;99.90;;;;;;7307423;32;20237;-61
2022/08/21 05:23:46;;;;;;;13.18;9.20;;;12.70;99.90;;;;;;7314932;32;20759;-63
2022/08/21 05:27:47;;;;;;;13.70;9.60;;;12.80;99.90;;;;;;7298662;32;20174;-62
2022/08/21 05:31:52;;;;;;;13.75;11.20;;;12.90;99.90;;;;;;7299040;32;20203;-60
2022/08/21 05:35:55;;;;;;;21.75;16.45;;;13.00;99.90;;;;;;7309774;32;20556;-60
2022/08/21 05:39:58;;;;;;;23.65;15.40;;;13.20;99.90;;;;;;7316067;32;20127;-60
2022/08/21 05:44:20;;;;;;;30.05;18.23;;;13.30;99.90;;;;;;7320543;32;20323;-62
2022/08/21 05:48:24;;;;;;;23.38;16.48;;;13.50;99.90;;;;;;7308079;32;20100;-62
2022/08/21 05:52:26;;;;;;;26.60;17.65;;;13.70;99.90;;;;;;7319701;32;20135;-62
2022/08/21 05:56:27;;;;;;;25.88;17.25;;;13.80;99.90;;;;;;7312888;32;20376;-61
2022/08/21 06:00:29;;;;;;;20.62;16.15;;;14.00;99.90;;;;;;7307388;32;20126;-62
2022/08/21 06:04:35;;;;;;;26.02;15.90;;;14.00;99.90;;;;;;7313623;32;20280;-57
2022/08/21 06:08:37;;;;;;;22.83;14.25;;;14.20;99.90;;;;;;7312025;32;20516;-57
2022/08/21 06:12:39;;;;;;;21.77;14.63;;;14.30;99.90;;;;;;7312798;32;20118;-58
2022/08/21 06:16:43;;;;;;;21.60;15.05;;;14.50;99.90;;;;;;7308238;32;20138;-57
2022/08/21 06:20:45;;;;;;;20.98;13.62;;;14.60;99.90;;;;;;7311294;32;20134;-64
2022/08/21 06:24:47;;;;;;;14.60;11.50;;;14.70;99.90;;;;;;7295509;32;20603;-65
2022/08/21 06:28:49;;;;;;;15.57;11.27;;;15.10;99.90;;;;;;7299936;32;20192;-64
2022/08/21 06:32:50;;;;;;;15.70;10.57;;;15.20;99.90;;;;;;7308339;32;20107;-64
2022/08/21 06:36:52;;;;;;;20.42;11.48;;;15.20;99.90;;;;;;7297238;32;20115;-65
2022/08/21 06:40:57;;;;;;;20.33;11.50;;;15.30;99.90;;;;;;7315228;32;20096;-66
2022/08/21 06:44:59;;;;;;;18.67;10.52;;;15.30;99.90;;;;;;7313085;32;20103;-63
2022/08/21 06:49:01;;;;;;;19.33;9.93;;;15.60;99.90;;;;;;7308076;32;20186;-64
2022/08/21 06:53:14;;;;;;;13.27;9.40;;;15.70;99.90;;;;;;7313814;32;20130;-64
2022/08/21 06:57:16;;;;;;;15.63;9.40;;;15.80;99.90;;;;;;7312806;32;20095;-63
2022/08/21 07:01:26;;;;;;;15.05;8.38;;;15.80;99.90;;;;;;7312509;32;20136;-63
2022/08/21 07:05:29;;;;;;;17.75;8.65;;;15.90;99.90;;;;;;7303012;32;20261;-65
2022/08/21 07:09:31;;;;;;;12.18;7.32;;;16.00;99.90;;;;;;7317068;32;20232;-64
2022/08/21 07:13:33;;;;;;;13.98;7.55;;;16.10;99.90;;;;;;7316084;32;20217;-66
2022/08/21 07:17:35;;;;;;;14.07;7.97;;;16.40;99.90;;;;;;7316094;32;20505;-64
2022/08/21 07:21:37;;;;;;;9.68;6.30;;;16.50;99.90;;;;;;7313850;32;20206;-57
2022/08/21 07:25:38;;;;;;;11.55;6.15;;;16.80;99.90;;;;;;7315684;32;20131;-58
2022/08/21 07:29:40;;;;;;;8.70;3.97;;;16.80;99.90;;;;;;7317388;32;20878;-59
2022/08/21 07:33:43;;;;;;;9.07;5.32;;;16.80;99.90;;;;;;7307203;32;20099;-57
2022/08/21 07:37:52;;;;;;;9.02;3.80;;;17.10;99.90;;;;;;7318082;32;20107;-60
2022/08/21 07:41:54;;;;;;;11.27;3.87;;;17.40;99.90;;;;;;7313336;32;20176;-66
2022/08/21 07:45:56;;;;;;;9.40;3.08;;;17.50;99.90;;;;;;7311761;32;20876;-66
2022/08/21 07:49:58;;;;;;;11.48;3.20;;;17.70;99.90;;;;;;7297363;32;20295;-67
2022/08/21 07:54:00;;;;;;;9.50;3.05;;;17.70;99.90;;;;;;7299956;32;20246;-67
2022/08/21 07:58:02;;;;;;;6.70;2.60;;;17.70;99.90;;;;;;7310291;32;20130;-60
2022/08/21 08:02:04;;;;;;;11.57;2.72;;;18.00;99.90;;;;;;7315648;32;20130;-60
2022/08/21 08:06:08;;;;;;;13.55;3.20;;;18.10;99.90;;;;;;7314603;32;20104;-60
2022/08/21 08:10:10;;;;;;;7.72;2.50;;;18.40;99.90;;;;;;7315231;32;20244;-61
2022/08/21 08:14:12;;;;;;;8.20;2.33;;;18.60;99.90;;;;;;7312826;32;20455;-66
2022/08/21 08:18:14;;;;;;;6.87;2.00;;;18.50;99.90;;;;;;7310806;32;20186;-68
2022/08/21 08:22:23;;;;;;;5.93;1.67;;;18.60;99.90;;;;;;7307806;32;20143;-65
2022/08/21 08:26:25;;;;;;;6.35;1.50;;;18.70;99.90;;;;;;7307002;32;20100;-64
2022/08/21 08:30:26;;;;;;;9.68;2.12;;;18.90;99.90;;;;;;7315286;32;20215;-63
2022/08/21 08:34:35;;;;;;;5.30;1.77;;;19.00;99.90;;;;;;7314041;32;20253;-62
2022/08/21 08:38:37;;;;;;;4.18;1.40;;;19.10;99.90;;;;;;7317161;32;20345;-64
2022/08/21 08:42:41;;;;;;;5.37;1.48;;;19.20;99.90;;;;;;7323882;32;20198;-64
2022/08/21 08:46:50;;;;;;;6.55;1.45;;;19.60;99.90;;;;;;7319998;32;20160;-65
2022/08/21 08:50:56;;;;;;;5.93;1.60;;;20.10;99.90;;;;;;7315544;32;20612;-65
2022/08/21 08:55:23;;;;;;;6.40;1.67;;;20.80;99.90;;;;;;7318095;32;20512;-64
2022/08/21 08:59:39;;;;;;;5.07;1.37;;;21.50;99.90;;;;;;7317224;32;20370;-63
2022/08/21 09:03:42;;;;;;;6.40;1.83;;;21.80;99.90;;;;;;7319583;32;20164;-63
2022/08/21 09:08:05;;;;;;;4.87;1.50;;;21.90;99.90;;;;;;7318890;32;20099;-63
2022/08/21 09:12:44;;;;;;;7.03;1.85;;;22.20;99.90;;;;;;7326789;32;20272;-63
2022/08/21 09:16:49;;;;;;;4.53;1.52;;;22.60;99.90;;;;;;7323145;32;20168;-62
2022/08/21 09:21:09;;;;;;;6.33;1.70;;;23.30;99.90;;;;;;7309539;32;20543;-63
2022/08/21 09:25:22;;;;;;;5.30;1.40;;;23.10;99.90;;;;;;7314937;32;20225;-63
2022/08/21 09:29:29;;;;;;;4.68;1.27;;;23.20;99.90;;;;;;7319783;32;20115;-64
2022/08/21 09:33:31;;;;;;;5.95;1.37;;;23.80;99.90;;;;;;7327177;32;20218;-63
2022/08/21 09:37:55;;;;;;;5.50;1.40;;;24.40;99.90;;;;;;7322989;32;20559;-63
2022/08/21 09:42:04;;;;;;;6.62;1.30;;;24.50;99.90;;;;;;7317521;32;20744;-64
2022/08/21 09:46:09;;;;;;;4.78;1.42;;;25.20;99.90;;;;;;7324663;32;20112;-65
2022/08/21 09:50:38;;;;;;;5.70;1.50;;;25.60;99.90;;;;;;7324271;32;20190;-64
2022/08/21 09:54:40;;;;;;;4.65;1.20;;;26.20;99.90;;;;;;7311100;32;20484;-64
2022/08/21 09:58:46;;;;;;;5.18;1.40;;;26.30;99.90;;;;;;7300353;32;20730;-62
2022/08/21 10:02:49;;;;;;;5.28;1.40;;;26.80;99.90;;;;;;7313303;32;20134;-64
2022/08/21 10:06:50;;;;;;;3.67;1.27;;;26.90;99.00;;;;;;7325744;32;20195;-63
2022/08/21 10:11:04;;;;;;;5.93;1.62;;;26.40;98.70;;;;;;7324261;32;20138;-64
2022/08/21 10:15:21;;;;;;;5.20;1.50;;;26.50;99.50;;;;;;7316926;32;20150;-63
2022/08/21 10:19:45;;;;;;;5.12;1.15;;;26.00;98.40;;;;;;7324314;32;20187;-64
2022/08/21 10:24:11;;;;;;;4.87;1.35;;;26.40;99.90;;;;;;7323065;32;20195;-64
2022/08/21 10:28:42;;;;;;;4.78;1.12;;;27.20;96.90;;;;;;7323544;32;20194;-65
2022/08/21 10:32:50;;;;;;;4.40;1.10;;;27.70;96.80;;;;;;7315106;32;20103;-64
2022/08/21 10:37:01;;;;;;;5.28;1.20;;;27.20;96.40;;;;;;7326392;32;20134;-64
2022/08/21 10:41:48;;;;;;;6.03;1.20;;;27.10;96.90;;;;;;7311213;32;20225;-64
2022/08/21 10:46:09;;;;;;;4.07;1.55;;;27.00;95.70;;;;;;7314294;32;20967;-64
2022/08/21 10:50:41;;;;;;;4.68;1.33;;;27.00;97.50;;;;;;7310197;32;20125;-65
2022/08/21 10:55:06;;;;;;;5.30;1.15;;;26.50;96.70;;;;;;7313876;32;20095;-66
2022/08/21 10:59:26;;;;;;;5.95;1.35;;;26.40;96.50;;;;;;7312596;32;20732;-66
2022/08/21 11:03:33;;;;;;;7.65;1.08;;;25.80;96.60;;;;;;7319774;32;21282;-64
2022/08/21 11:08:06;;;;;;;3.30;1.37;;;25.70;98.00;;;;;;7298578;32;20581;-64
2022/08/21 11:12:29;;;;;;;4.30;1.10;;;25.20;97.90;;;;;;7313042;32;20115;-64
2022/08/21 11:16:37;;;;;;;5.72;1.12;;;25.00;99.40;;;;;;7315998;32;20650;-63
2022/08/21 11:20:54;;;;;;;5.62;0.95;;;25.00;98.90;;;;;;7314351;32;20115;-63
2022/08/21 11:25:02;;;;;;;4.22;1.10;;;25.00;99.00;;;;;;7315050;32;20578;-64
2022/08/21 11:29:29;;;;;;;5.25;1.17;;;25.00;98.20;;;;;;7309700;32;20150;-63
2022/08/21 11:34:02;;;;;;;3.97;0.88;;;25.00;98.80;;;;;;7315063;32;20229;-63
2022/08/21 11:38:35;;;;;;;5.18;1.02;;;25.20;99.70;;;;;;7313592;32;20193;-59
2022/08/21 11:43:02;;;;;;;4.65;1.40;;;25.50;98.30;;;;;;7309286;32;20104;-63
2022/08/21 11:47:04;;;;;;;;;;;25.50;98.40;;;;;;7317952;32;20886;-64
2022/08/21 11:51:31;;;;;;;2.70;1.10;;;25.80;97.10;;;;;;7306236;32;20030;-64
2022/08/21 11:55:51;;;;;;;4.60;1.15;;;26.10;96.20;;;;;;7314158;32;20352;-63
2022/08/21 12:00:03;;;;;;;4.65;1.10;;;26.30;96.50;;;;;;7318913;32;20107;-64
2022/08/21 12:04:16;;;;;;;4.60;1.10;;;26.20;96.60;;;;;;7314731;32;20723;-63
2022/08/21 12:08:41;;;;;;;3.70;0.95;;;25.80;95.70;;;;;;7313455;32;20505;-63
2022/08/21 12:12:45;;;;;;;4.18;0.80;;;25.70;97.20;;;;;;7304396;32;20135;-64
2022/08/21 12:16:49;;;;;;;5.07;1.00;;;25.60;96.60;;;;;;7317265;32;20307;-64
2022/08/21 12:21:21;;;;;;;5.05;1.17;;;25.50;96.90;;;;;;7320034;32;20820;-64
2022/08/21 12:25:23;;;;;;;2.15;0.70;;;25.30;97.90;;;;;;7314393;32;20261;-64
2022/08/21 12:29:35;;;;;;;3.33;1.00;;;25.30;97.30;;;;;;7315755;32;20172;-62
2022/08/21 12:33:39;;;;;;;3.50;1.08;;;25.20;97.40;;;;;;7311731;32;20169;-60
2022/08/21 12:37:45;;;;;;;3.20;0.85;;;25.50;96.30;;;;;;7289915;32;20693;-61
2022/08/21 12:41:53;;;;;;;3.42;0.88;;;25.80;96.60;;;;;;7305988;32;20226;-60
2022/08/21 12:45:58;;;;;;;4.87;2.85;;;25.70;94.70;;;;;;7307469;32;20797;-64
2022/08/21 12:50:05;;;;;;;61.00;29.12;;;25.80;94.90;;;;;;7305992;32;20199;-65
2022/08/21 12:54:07;;;;;;;800.60;632.55;;;25.90;94.80;;;;;;7313563;32;20463;-65
2022/08/21 12:58:28;;;;;;;13.25;6.53;;;26.20;93.20;;;;;;7317594;32;20151;-65
2022/08/21 13:02:32;;;;;;;4.10;1.48;;;25.80;94.60;;;;;;7313381;32;20150;-65
2022/08/21 13:06:41;;;;;;;3.58;1.00;;;25.50;95.10;;;;;;7313758;32;20115;-63
2022/08/21 13:10:45;;;;;;;2.20;0.70;;;25.50;96.30;;;;;;7315572;32;20103;-65
2022/08/21 13:14:49;;;;;;;3.50;0.55;;;25.90;94.70;;;;;;7317097;32;20238;-65
2022/08/21 13:19:01;;;;;;;3.80;0.70;;;25.90;95.00;;;;;;7321846;32;20203;-65
2022/08/21 13:23:07;;;;;;;2.80;0.85;;;25.70;93.80;;;;;;7320951;32;20262;-61
2022/08/21 13:27:22;;;;;;;6.18;0.90;;;25.80;95.10;;;;;;7313422;32;20221;-61
2022/08/21 13:31:27;;;;;;;6.70;3.37;;;25.70;94.40;;;;;;7310359;32;20133;-64
2022/08/21 13:35:49;;;;;;;4.30;1.00;;;25.90;94.90;;;;;;7312858;32;20108;-65
2022/08/21 13:39:54;;;;;;;3.05;1.10;;;25.90;92.80;;;;;;7317257;32;20656;-64
2022/08/21 13:44:13;;;;;;;3.50;0.75;;;26.00;94.30;;;;;;7306730;32;20190;-64
2022/08/21 13:48:28;;;;;;;3.05;0.70;;;26.00;94.60;;;;;;7299363;32;20461;-64
2022/08/21 13:52:30;;;;;;;4.22;1.02;;;25.90;93.10;;;;;;7317310;32;20171;-64
2022/08/21 13:56:45;;;;;;;2.87;0.70;;;25.50;93.60;;;;;;7321053;32;20215;-64
2022/08/21 14:00:49;;;;;;;5.18;0.80;;;25.30;95.40;;;;;;7316181;32;20353;-64
2022/08/21 14:05:01;;;;;;;4.25;0.80;;;25.70;95.80;;;;;;7320958;32;20124;-64
2022/08/21 14:09:13;;;;;;;3.22;0.80;;;26.10;93.40;;;;;;7318455;32;20134;-65
2022/08/21 14:13:27;;;;;;;4.45;0.95;;;26.00;92.20;;;;;;7321248;32;20705;-65
2022/08/21 14:17:32;;;;;;;3.30;0.60;;;26.00;93.00;;;;;;7314762;32;20099;-64
2022/08/21 14:21:39;;;;;;;3.55;0.80;;;26.30;95.10;;;;;;7314621;32;20148;-63
2022/08/21 14:25:44;;;;;;;7.27;1.00;;;26.90;93.80;;;;;;7316617;32;20215;-65
2022/08/21 14:29:45;;;;;;;4.62;0.80;;;27.40;92.20;;;;;;7317981;32;20845;-65
2022/08/21 14:33:48;;;;;;;4.00;0.80;;;27.70;91.00;;;;;;7315796;32;20120;-64
2022/08/21 14:37:50;;;;;;;6.32;1.00;;;28.00;90.00;;;;;;7314004;32;20159;-65
2022/08/21 14:41:52;;;;;;;2.80;0.60;;;28.20;90.30;;;;;;7317996;32;20244;-65
2022/08/21 14:45:55;;;;;;;5.32;0.90;;;28.20;88.10;;;;;;7301323;32;20100;-67
2022/08/21 14:49:58;;;;;;;3.33;0.73;;;28.00;90.00;;;;;;7314868;32;20234;-67
2022/08/21 14:54:00;;;;;;;5.05;0.90;;;27.70;87.70;;;;;;7315678;32;20119;-66
2022/08/21 14:58:01;;;;;;;5.62;0.73;;;27.30;82.60;;;;;;7320855;32;20143;-66
2022/08/21 15:02:07;;;;;;;3.47;0.80;;;26.60;87.00;;;;;;7317061;32;20891;-68
2022/08/21 15:06:10;;;;;;;2.70;0.73;;;26.20;88.70;;;;;;7318748;32;20160;-65
2022/08/21 15:10:12;;;;;;;2.17;0.60;;;25.70;88.90;;;;;;7313344;32;20590;-65
2022/08/21 15:14:20;;;;;;;3.12;0.80;;;25.40;90.20;;;;;;7296395;32;20135;-66
2022/08/21 15:18:25;;;;;;;1.80;0.65;;;25.10;90.10;;;;;;7312427;32;20266;-67
2022/08/21 15:22:27;;;;;;;2.65;0.60;;;24.90;90.80;;;;;;7311396;32;20576;-66
2022/08/21 15:26:29;;;;;;;1.90;0.60;;;24.80;91.40;;;;;;7301907;32;20695;-65
2022/08/21 15:30:32;;;;;;;2.33;0.85;;;24.90;90.90;;;;;;7312949;32;20795;-66
2022/08/21 15:34:33;;;;;;;3.95;1.30;;;24.90;92.60;;;;;;7300362;32;20341;-65
2022/08/21 15:38:35;;;;;;;4.20;0.95;;;25.10;91.10;;;;;;7309289;32;20120;-61
2022/08/21 15:42:39;;;;;;;3.12;0.90;;;25.10;92.50;;;;;;7316226;32;20154;-66
2022/08/21 15:46:44;;;;;;;5.00;1.00;;;25.10;93.40;;;;;;7320321;32;20127;-67
2022/08/21 15:50:46;;;;;;;4.00;1.00;;;25.10;92.90;;;;;;7316227;32;20683;-64
2022/08/21 15:54:48;;;;;;;5.78;1.42;;;25.10;92.30;;;;;;7312785;32;20153;-66
2022/08/21 15:58:53;;;;;;;4.80;0.88;;;24.70;93.50;;;;;;7320999;32;20180;-66
2022/08/21 16:02:58;;;;;;;4.00;0.82;;;24.60;94.00;;;;;;7318335;32;20123;-66
2022/08/21 16:07:00;;;;;;;3.70;0.75;;;24.50;93.90;;;;;;7299824;32;20128;-65
2022/08/21 16:11:14;;;;;;;2.55;0.70;;;24.40;92.40;;;;;;7317465;32;20175;-66
2022/08/21 16:15:17;;;;;;;3.05;0.75;;;24.40;93.50;;;;;;7313715;32;20255;-65
2022/08/21 16:19:21;;;;;;;3.78;0.73;;;24.20;93.90;;;;;;7307808;32;20551;-68
2022/08/21 16:23:23;;;;;;;2.50;0.80;;;24.20;93.50;;;;;;7313858;32;20225;-68
2022/08/21 16:27:25;;;;;;;4.82;1.00;;;24.10;93.60;;;;;;7316930;32;20161;-67
2022/08/21 16:31:31;;;;;;;4.05;0.85;;;24.10;93.80;;;;;;7319775;32;20184;-67
2022/08/21 16:35:32;;;;;;;3.40;0.90;;;23.80;93.80;;;;;;7323561;32;20310;-67
2022/08/21 16:39:34;;;;;;;3.05;0.85;;;23.60;94.30;;;;;;7318156;32;20149;-68
2022/08/21 16:43:39;;;;;;;5.97;1.00;;;23.60;95.90;;;;;;7315880;32;20126;-65
2022/08/21 16:47:42;;;;;;;4.50;1.25;;;23.50;95.70;;;;;;7314150;32;20108;-67
2022/08/21 16:51:43;;;;;;;3.87;1.23;;;23.40;96.60;;;;;;7318698;32;20353;-67
2022/08/21 16:55:45;;;;;;;5.70;0.85;;;23.40;95.40;;;;;;7321084;32;20161;-67
2022/08/21 16:59:47;;;;;;;3.55;0.88;;;23.40;96.20;;;;;;7319995;32;20178;-67
2022/08/21 17:03:50;;;;;;;2.78;0.93;;;23.40;96.00;;;;;;7299008;32;21452;-68
2022/08/21 17:07:52;;;;;;;5.45;0.90;;;23.30;96.20;;;;;;7301681;32;20207;-68
2022/08/21 17:11:54;;;;;;;5.75;1.20;;;23.30;95.70;;;;;;7319784;32;20488;-67
2022/08/21 17:15:56;;;;;;;3.87;1.25;;;23.30;96.50;;;;;;7315985;32;20730;-66
2022/08/21 17:19:58;;;;;;;5.65;1.12;;;23.20;96.10;;;;;;7315379;32;20166;-66
2022/08/21 17:23:59;;;;;;;3.70;1.02;;;23.20;95.40;;;;;;7312115;32;20164;-68
2022/08/21 17:28:02;;;;;;;4.55;1.23;;;23.20;95.90;;;;;;7316919;32;20135;-67
2022/08/21 17:32:08;;;;;;;4.20;1.08;;;23.10;97.10;;;;;;7314516;32;20704;-66
2022/08/21 17:36:10;;;;;;;3.10;1.00;;;23.20;94.70;;;;;;7322000;32;20118;-71
2022/08/21 17:40:14;;;;;;;4.47;0.85;;;23.10;94.80;;;;;;7302345;32;20206;-62
2022/08/21 17:44:18;;;;;;;3.30;0.90;;;22.90;95.50;;;;;;7312444;32;20560;-65
2022/08/21 17:48:20;;;;;;;3.87;1.00;;;22.70;95.40;;;;;;7314797;32;20190;-67
2022/08/21 17:52:26;;;;;;;3.03;1.10;;;22.60;95.70;;;;;;7320558;32;20103;-66
2022/08/21 17:56:34;;;;;;;3.90;1.10;;;22.40;96.40;;;;;;7322507;32;20194;-64
2022/08/21 18:00:36;;;;;;;6.68;0.90;;;22.40;97.00;;;;;;7316637;32;20187;-66
2022/08/21 18:04:38;;;;;;;3.70;1.10;;;22.30;96.60;;;;;;7314369;32;20091;-59
2022/08/21 18:08:40;;;;;;;4.47;1.02;;;22.00;97.20;;;;;;7312739;32;20130;-58
2022/08/21 18:12:50;;;;;;;5.72;1.15;;;21.90;98.30;;;;;;7313226;32;20274;-61
2022/08/21 18:16:52;;;;;;;6.70;1.12;;;21.70;99.20;;;;;;7307064;32;20204;-58
2022/08/21 18:20:54;;;;;;;5.18;0.90;;;21.40;99.90;;;;;;7315346;32;20119;-63
2022/08/21 18:24:56;;;;;;;5.75;1.00;;;21.20;99.90;;;;;;7318206;32;20203;-63
2022/08/21 18:29:00;;;;;;;5.90;1.23;;;20.90;99.90;;;;;;7316775;32;20104;-65
2022/08/21 18:33:02;;;;;;;5.82;1.23;;;20.70;99.90;;;;;;7321297;32;20100;-64
2022/08/21 18:37:04;;;;;;;9.60;1.58;;;20.40;99.90;;;;;;7323248;32;20145;-66
2022/08/21 18:41:06;;;;;;;8.48;1.42;;;20.10;99.90;;;;;;7321096;32;20165;-65
2022/08/21 18:45:13;;;;;;;6.50;1.37;;;19.90;99.90;;;;;;7316359;32;20118;-66
2022/08/21 18:49:15;;;;;;;5.53;1.20;;;19.70;99.90;;;;;;7311213;32;20148;-65
2022/08/21 18:53:17;;;;;;;6.03;1.05;;;19.50;99.90;;;;;;7319626;32;20099;-65
2022/08/21 18:57:29;;;;;;;3.60;1.20;;;19.20;99.90;;;;;;7316126;32;20110;-64
2022/08/21 19:01:32;;;;;;;6.85;1.23;;;19.00;99.90;;;;;;7298959;32;20096;-65
2022/08/21 19:05:34;;;;;;;7.43;1.55;;;18.80;99.90;;;;;;7313905;32;20184;-61
2022/08/21 19:09:37;;;;;;;8.57;1.30;;;18.70;99.90;;;;;;7313457;32;20119;-65
2022/08/21 19:13:39;;;;;;;3.05;1.20;;;18.40;99.90;;;;;;7315581;32;20814;-63
2022/08/21 19:17:42;;;;;;;5.57;1.60;;;18.20;99.90;;;;;;7300449;32;20705;-63
2022/08/21 19:21:46;;;;;;;3.97;1.40;;;18.10;99.90;;;;;;7303860;32;20502;-64
2022/08/21 19:25:54;;;;;;;13.48;1.80;;;17.90;99.90;;;;;;7320307;32;20440;-64
2022/08/21 19:30:03;;;;;;;5.95;1.52;;;17.80;99.90;;;;;;7318096;32;20537;-64
2022/08/21 19:34:13;;;;;;;6.25;1.58;;;17.60;99.90;;;;;;7314857;32;20700;-64
2022/08/21 19:38:16;;;;;;;8.07;2.03;;;17.50;99.90;;;;;;7316775;32;20110;-64
2022/08/21 19:42:20;;;;;;;6.75;1.60;;;17.30;99.90;;;;;;7317541;32;20120;-64
2022/08/21 19:46:32;;;;;;;6.62;1.65;;;17.20;99.90;;;;;;7314222;32;20119;-64
2022/08/21 19:50:35;;;;;;;7.35;1.50;;;17.20;99.90;;;;;;7303804;32;20219;-63
2022/08/21 19:54:45;;;;;;;6.85;1.77;;;17.10;99.90;;;;;;7315085;32;20126;-65
2022/08/21 19:58:49;;;;;;;8.98;1.60;;;17.00;99.90;;;;;;7318445;32;20563;-66
2022/08/21 20:02:51;;;;;;;7.03;1.73;;;16.90;99.90;;;;;;7302520;32;20167;-65
2022/08/21 20:06:54;;;;;;;9.55;1.40;;;16.90;99.90;;;;;;7299353;32;20305;-64
2022/08/21 20:10:57;;;;;;;5.82;1.77;;;16.80;99.90;;;;;;7318727;32;20516;-63
2022/08/21 20:15:05;;;;;;;11.95;2.42;;;16.70;99.90;;;;;;7311428;32;20099;-63
2022/08/21 20:19:09;;;;;;;5.47;1.48;;;16.70;99.90;;;;;;7318225;32;20100;-63
2022/08/21 20:23:11;;;;;;;6.40;1.77;;;16.70;99.90;;;;;;7321468;32;20207;-63
2022/08/21 20:27:20;;;;;;;6.90;1.80;;;16.60;99.90;;;;;;7320290;32;20685;-64
2022/08/21 20:31:23;;;;;;;6.95;1.70;;;16.60;99.90;;;;;;7302450;32;20206;-65
2022/08/21 20:35:24;;;;;;;3.85;1.42;;;16.60;99.90;;;;;;7314997;32;20130;-64
2022/08/21 20:39:27;;;;;;;6.40;1.80;;;16.60;99.90;;;;;;7315605;32;20372;-64
2022/08/21 20:43:30;;;;;;;9.02;1.73;;;16.60;99.90;;;;;;7317611;32;20218;-63
2022/08/21 20:47:32;;;;;;;11.07;1.90;;;16.60;99.90;;;;;;7319115;32;20169;-62
2022/08/21 20:51:39;;;;;;;3.65;1.62;;;16.60;99.90;;;;;;7318500;32;20104;-63
2022/08/21 20:55:48;;;;;;;5.68;1.58;;;16.60;99.90;;;;;;7313017;32;20223;-63
2022/08/21 20:59:55;;;;;;;3.95;1.70;;;16.50;99.90;;;;;;7311915;32;20218;-64
2022/08/21 21:04:07;;;;;;;9.00;2.20;;;16.50;99.90;;;;;;7302251;32;20123;-64
2022/08/21 21:08:23;;;;;;;9.25;1.77;;;16.50;99.90;;;;;;7316658;32;20269;-64
2022/08/21 21:12:39;;;;;;;8.63;1.80;;;16.50;99.90;;;;;;7314212;32;20100;-64
2022/08/21 21:16:49;;;;;;;5.60;2.10;;;16.40;99.90;;;;;;7316878;32;20107;-63